Asia, Texas
Current Conditions -  °F | °C
As of 9:53 AM on Monday 26 Jan 2015 (Local Time) from KLFK Reporting Station
Clear Clear  
Wind Chill: 56°   Ceiling: Unl
Heat Index: 56°   Visibility: 10mi
Dew Point: 34°   Wind: 6mph
Humidity: 44%   Direction: 320°NW
Pressure: 30.23"   Gusts: NA
Location:  31.024°N, 94.7686°W
Report Text: KLFK 261553Z AUTO 32005KT 10SM CLR 13/01 A3023 RMK AO2 SLP235 T01330011
Loading
Personal Weather Stations






























Interactive Weather Map New forecast layout! Learn more

10-Day Weather Forecast

Advertisements
Track Severe Weather on mobile